Rayong, Thailand

05:00 AM ICT on Februari 06, 2016 (GMT +0700)
U-Taphao International | | Change Station
CLOSE
Current Station
Airport
Location: Rayong,
Elevation: 39 ft
Nearby Weather Stations

Elev 39 ft 12.68 °N, 101.00 °E | Updated 30 minutes ago

Mist
Dimma
77 °F
Feels Like 77 °F
N
7
Vind Växlande Vind from Nordlig

Idag
High -- | Low -- °F
--% Chance of Precip.
Yesterday
High -- | Low -- °F
Precip. -- tum
Lufttryck 29.80 tum
Sikt 1.2 miles
Molnigt
Daggpunkt 57 °F
Luftfuktighet 50%
Rainfall 0.00 tum
Snow Depth Not available.
6:39 AM 6:17 PM
Fjärde kvarteret, 9% visible
METAR VTBU 052130Z 01006KT 2000 BR NSC 25/14 Q1009 A2982 NOSIG
Lufttryck 29.80 tum
Sikt 1.2 miles
Molnigt
Daggpunkt 57 °F
Luftfuktighet 50%
Rainfall 0.00 tum
Snow Depth Not available.
6:39 AM 6:17 PM
Fjärde kvarteret, 9% visible
METAR VTBU 052130Z 01006KT 2000 BR NSC 25/14 Q1009 A2982 NOSIG

10-Day Weather Forecast

No radar image for this location.
×

Almanac

Astronomi

Feb. 06, 2016 Rise Set
Actual Time
Civil Twilight
Nautical Twilight
Astronomical Twilight
Månen
Length Of Visible Light
Dagens längd
Tomorrow will be .
, % of the Moon is Illuminated

Today's Extremes

Country Highs Country Lows

Community

WunderPhotos

Upload Photos

1,890,865 photos uploaded!

WunderBlog® & News

Nearby

Air Quality

  Air Quality AQ Index Pollutant
Not available.

Snödjup

Station Depth Elevation

Earthquake Activity

Stad Distance Mag. Time & Date
Minimum magnitude displayed is 2.5.

Coastal Water Temperatures

Plats Temperatur

Stations

Nearby Weather Stations

Station Location Temp Vindavkylning Daggpunkt Luftfuktighet Vind Precip. Elev Uppdaterad Type